sensor_id;sensor_type;location;lat;lon;timestamp;pressure;altitude;pressure_sealevel;temperature;humidity
56928;BME280;60850;52.502;13.426;2023-07-20T00:02:02;100621.47;;;17.20;100.00
56928;BME280;60850;52.502;13.426;2023-07-20T00:04:31;100615.59;;;17.12;100.00
56928;BME280;60850;52.502;13.426;2023-07-20T00:06:58;100632.72;;;17.11;100.00
56928;BME280;60850;52.502;13.426;2023-07-20T00:09:26;100632.91;;;17.08;100.00
56928;BME280;60850;52.502;13.426;2023-07-20T00:11:53;100637.78;;;17.17;100.00
56928;BME280;60850;52.502;13.426;2023-07-20T00:14:20;100632.91;;;17.08;100.00
56928;BME280;60850;52.502;13.426;2023-07-20T00:16:49;100640.22;;;17.06;100.00
56928;BME280;60850;52.502;13.426;2023-07-20T00:19:24;100628.03;;;16.98;100.00
56928;BME280;60850;52.502;13.426;2023-07-20T00:21:51;100631.66;;;16.97;100.00
56928;BME280;60850;52.502;13.426;2023-07-20T00:24:18;100627.66;;;16.89;100.00
56928;BME280;60850;52.502;13.426;2023-07-20T00:26:44;100632.16;;;16.88;100.00
56928;BME280;60850;52.502;13.426;2023-07-20T00:29:11;100630.59;;;16.84;100.00
56928;BME280;60850;52.502;13.426;2023-07-20T00:31:38;100630.06;;;16.78;100.00
56928;BME280;60850;52.502;13.426;2023-07-20T00:34:05;100622.50;;;16.84;100.00
56928;BME280;60850;52.502;13.426;2023-07-20T00:36:34;100627.66;;;16.89;100.00
56928;BME280;60850;52.502;13.426;2023-07-20T00:39:01;100629.03;;;16.80;100.00
56928;BME280;60850;52.502;13.426;2023-07-20T00:41:28;100631.72;;;16.80;100.00
56928;BME280;60850;52.502;13.426;2023-07-20T00:43:55;100639.94;;;16.77;100.00
56928;BME280;60850;52.502;13.426;2023-07-20T00:46:23;100635.84;;;16.70;100.00
56928;BME280;60850;52.502;13.426;2023-07-20T00:48:51;100634.41;;;16.63;100.00
56928;BME280;60850;52.502;13.426;2023-07-20T00:51:18;100638.69;;;16.67;100.00
56928;BME280;60850;52.502;13.426;2023-07-20T00:53:47;100642.16;;;16.69;100.00
56928;BME280;60850;52.502;13.426;2023-07-20T00:56:14;100634.56;;;16.77;100.00
56928;BME280;60850;52.502;13.426;2023-07-20T00:58:42;100639.25;;;16.73;100.00
56928;BME280;60850;52.502;13.426;2023-07-20T01:01:09;100629.53;;;16.71;100.00
56928;BME280;60850;52.502;13.426;2023-07-20T01:03:36;100633.16;;;16.70;100.00
56928;BME280;60850;52.502;13.426;2023-07-20T01:06:10;100634.75;;;16.57;100.00
56928;BME280;60850;52.502;13.426;2023-07-20T01:08:46;100632.28;;;16.69;100.00
56928;BME280;60850;52.502;13.426;2023-07-20T01:11:19;100638.38;;;16.73;100.00
56928;BME280;60850;52.502;13.426;2023-07-20T01:13:50;100640.72;;;16.62;100.00
56928;BME280;60850;52.502;13.426;2023-07-20T01:16:17;100635.97;;;16.67;100.00
56928;BME280;60850;52.502;13.426;2023-07-20T01:18:44;100635.84;;;16.53;100.00
56928;BME280;60850;52.502;13.426;2023-07-20T01:21:15;100633.94;;;16.55;100.00
56928;BME280;60850;52.502;13.426;2023-07-20T01:24:05;100631.81;;;16.44;100.00
56928;BME280;60850;52.502;13.426;2023-07-20T01:27:00;100633.72;;;16.59;100.00
56928;BME280;60850;52.502;13.426;2023-07-20T01:29:42;100644.16;;;16.48;100.00
56928;BME280;60850;52.502;13.426;2023-07-20T01:32:16;100640.91;;;16.59;100.00
56928;BME280;60850;52.502;13.426;2023-07-20T01:34:44;100639.19;;;16.58;100.00
56928;BME280;60850;52.502;13.426;2023-07-20T01:37:11;100641.47;;;16.65;100.00
56928;BME280;60850;52.502;13.426;2023-07-20T01:39:40;100636.41;;;16.59;100.00
56928;BME280;60850;52.502;13.426;2023-07-20T01:42:07;100628.56;;;16.55;100.00
56928;BME280;60850;52.502;13.426;2023-07-20T01:44:34;100638.78;;;16.48;100.00
56928;BME280;60850;52.502;13.426;2023-07-20T01:47:01;100642.69;;;16.42;100.00
56928;BME280;60850;52.502;13.426;2023-07-20T01:49:29;100630.78;;;16.46;100.00
56928;BME280;60850;52.502;13.426;2023-07-20T01:51:56;100636.25;;;16.45;100.00
56928;BME280;60850;52.502;13.426;2023-07-20T01:54:23;100642.50;;;16.45;100.00
56928;BME280;60850;52.502;13.426;2023-07-20T01:56:50;100638.00;;;16.46;100.00
56928;BME280;60850;52.502;13.426;2023-07-20T01:59:17;100638.94;;;16.45;100.00
56928;BME280;60850;52.502;13.426;2023-07-20T02:01:44;100632.38;;;16.51;100.00
56928;BME280;60850;52.502;13.426;2023-07-20T02:04:11;100632.84;;;16.41;100.00
56928;BME280;60850;52.502;13.426;2023-07-20T02:06:39;100636.16;;;16.46;100.00
56928;BME280;60850;52.502;13.426;2023-07-20T02:09:06;100638.94;;;16.45;100.00
56928;BME280;60850;52.502;13.426;2023-07-20T02:11:32;100640.44;;;16.51;100.00
56928;BME280;60850;52.502;13.426;2023-07-20T02:13:59;100642.59;;;16.44;100.00
56928;BME280;60850;52.502;13.426;2023-07-20T02:16:26;100644.25;;;16.46;100.00
56928;BME280;60850;52.502;13.426;2023-07-20T02:18:53;100632.38;;;16.51;100.00
56928;BME280;60850;52.502;13.426;2023-07-20T02:21:22;100642.03;;;16.37;100.00
56928;BME280;60850;52.502;13.426;2023-07-20T02:23:50;100637.53;;;16.38;100.00
56928;BME280;60850;52.502;13.426;2023-07-20T02:26:17;100634.75;;;16.39;100.00
56928;BME280;60850;52.502;13.426;2023-07-20T02:28:44;100645.81;;;16.33;100.00
56928;BME280;60850;52.502;13.426;2023-07-20T02:31:11;100639.81;;;16.11;100.00
56928;BME280;60850;52.502;13.426;2023-07-20T02:33:38;100629.94;;;16.29;100.00
56928;BME280;60850;52.502;13.426;2023-07-20T02:36:05;100630.63;;;16.32;100.00
56928;BME280;60850;52.502;13.426;2023-07-20T02:38:32;100629.44;;;16.20;100.00
56928;BME280;60850;52.502;13.426;2023-07-20T02:41:00;100626.53;;;16.25;100.00
56928;BME280;60850;52.502;13.426;2023-07-20T02:43:27;100623.19;;;16.20;100.00
56928;BME280;60850;52.502;13.426;2023-07-20T02:45:53;100631.03;;;16.25;100.00
56928;BME280;60850;52.502;13.426;2023-07-20T02:48:20;100628.84;;;16.15;100.00
56928;BME280;60850;52.502;13.426;2023-07-20T02:50:47;100638.00;;;16.29;100.00
56928;BME280;60850;52.502;13.426;2023-07-20T02:53:14;100651.50;;;16.27;100.00
56928;BME280;60850;52.502;13.426;2023-07-20T02:55:41;100648.50;;;16.33;100.00
56928;BME280;60850;52.502;13.426;2023-07-20T02:58:09;100653.81;;;16.35;100.00
56928;BME280;60850;52.502;13.426;2023-07-20T03:00:36;100656.13;;;16.42;100.00
56928;BME280;60850;52.502;13.426;2023-07-20T03:03:03;100660.09;;;16.35;100.00
56928;BME280;60850;52.502;13.426;2023-07-20T03:05:34;100662.28;;;16.44;100.00
56928;BME280;60850;52.502;13.426;2023-07-20T03:08:04;100663.56;;;16.37;100.00
56928;BME280;60850;52.502;13.426;2023-07-20T03:10:31;100663.56;;;16.37;100.00
56928;BME280;60850;52.502;13.426;2023-07-20T03:12:58;100665.31;;;16.38;100.00
56928;BME280;60850;52.502;13.426;2023-07-20T03:15:26;100664.13;;;16.44;100.00
56928;BME280;60850;52.502;13.426;2023-07-20T03:17:57;100671.00;;;16.50;100.00
56928;BME280;60850;52.502;13.426;2023-07-20T03:20:24;100668.69;;;16.42;100.00
56928;BME280;60850;52.502;13.426;2023-07-20T03:22:51;100669.91;;;16.36;100.00
56928;BME280;60850;52.502;13.426;2023-07-20T03:25:18;100667.19;;;16.54;100.00
56928;BME280;60850;52.502;13.426;2023-07-20T03:27:45;100659.91;;;16.38;100.00
56928;BME280;60850;52.502;13.426;2023-07-20T03:30:12;100658.41;;;16.33;100.00
56928;BME280;60850;52.502;13.426;2023-07-20T03:32:40;100658.59;;;16.30;100.00
56928;BME280;60850;52.502;13.426;2023-07-20T03:35:08;100661.97;;;16.33;100.00
56928;BME280;60850;52.502;13.426;2023-07-20T03:37:35;100665.13;;;16.24;100.00
56928;BME280;60850;52.502;13.426;2023-07-20T03:40:02;100669.94;;;16.35;100.00
56928;BME280;60850;52.502;13.426;2023-07-20T03:42:30;100667.81;;;16.41;100.00
56928;BME280;60850;52.502;13.426;2023-07-20T03:44:57;100671.72;;;16.36;100.00
56928;BME280;60850;52.502;13.426;2023-07-20T03:47:24;100667.03;;;16.39;100.00
56928;BME280;60850;52.502;13.426;2023-07-20T03:49:52;100673.94;;;16.45;100.00
56928;BME280;60850;52.502;13.426;2023-07-20T03:52:19;100669.25;;;16.48;100.00
56928;BME280;60850;52.502;13.426;2023-07-20T03:54:46;100674.78;;;16.63;100.00
56928;BME280;60850;52.502;13.426;2023-07-20T03:57:13;100675.56;;;16.47;100.00
56928;BME280;60850;52.502;13.426;2023-07-20T03:59:44;100681.69;;;16.51;100.00
56928;BME280;60850;52.502;13.426;2023-07-20T04:02:12;100675.44;;;16.51;100.00
56928;BME280;60850;52.502;13.426;2023-07-20T04:04:38;100683.09;;;16.58;100.00
56928;BME280;60850;52.502;13.426;2023-07-20T04:07:07;100682.94;;;16.44;100.00
56928;BME280;60850;52.502;13.426;2023-07-20T04:09:34;100684.34;;;16.34;100.00
56928;BME280;60850;52.502;13.426;2023-07-20T04:12:01;100683.50;;;16.33;100.00
56928;BME280;60850;52.502;13.426;2023-07-20T04:14:27;100688.25;;;16.45;100.00
56928;BME280;60850;52.502;13.426;2023-07-20T04:16:54;100685.16;;;16.53;100.00
56928;BME280;60850;52.502;13.426;2023-07-20T04:19:21;100683.66;;;16.47;100.00
56928;BME280;60850;52.502;13.426;2023-07-20T04:21:48;100688.56;;;16.39;100.00
56928;BME280;60850;52.502;13.426;2023-07-20T04:24:16;100675.84;;;16.43;100.00
56928;BME280;60850;52.502;13.426;2023-07-20T04:26:43;100689.97;;;16.46;100.00
56928;BME280;60850;52.502;13.426;2023-07-20T04:29:10;100688.25;;;16.45;100.00
56928;BME280;60850;52.502;13.426;2023-07-20T04:31:37;100693.97;;;16.57;100.00
56928;BME280;60850;52.502;13.426;2023-07-20T04:34:04;100697.03;;;16.49;100.00
56928;BME280;60850;52.502;13.426;2023-07-20T04:36:32;100696.97;;;16.51;100.00
56928;BME280;60850;52.502;13.426;2023-07-20T04:38:59;100700.19;;;16.40;100.00
56928;BME280;60850;52.502;13.426;2023-07-20T04:41:27;100707.00;;;16.47;100.00
56928;BME280;60850;52.502;13.426;2023-07-20T04:43:54;100697.41;;;16.41;100.00
56928;BME280;60850;52.502;13.426;2023-07-20T04:46:21;100698.69;;;16.52;100.00
56928;BME280;60850;52.502;13.426;2023-07-20T04:48:47;100705.34;;;16.62;100.00
56928;BME280;60850;52.502;13.426;2023-07-20T04:51:14;100702.59;;;16.81;100.00
56928;BME280;60850;52.502;13.426;2023-07-20T04:53:42;100696.97;;;16.85;100.00
56928;BME280;60850;52.502;13.426;2023-07-20T04:56:09;100702.50;;;16.99;100.00
56928;BME280;60850;52.502;13.426;2023-07-20T04:58:38;100697.34;;;16.95;100.00
56928;BME280;60850;52.502;13.426;2023-07-20T05:01:05;100698.06;;;16.98;100.00
56928;BME280;60850;52.502;13.426;2023-07-20T05:03:31;100701.22;;;16.89;100.00
56928;BME280;60850;52.502;13.426;2023-07-20T05:05:58;100710.72;;;16.96;100.00
56928;BME280;60850;52.502;13.426;2023-07-20T05:08:26;100704.03;;;17.03;100.00
56928;BME280;60850;52.502;13.426;2023-07-20T05:10:53;100695.81;;;17.07;100.00
56928;BME280;60850;52.502;13.426;2023-07-20T05:13:19;100694.81;;;17.25;100.00
56928;BME280;60850;52.502;13.426;2023-07-20T05:15:51;100703.00;;;17.39;100.00
56928;BME280;60850;52.502;13.426;2023-07-20T05:18:18;100703.28;;;17.50;100.00
56928;BME280;60850;52.502;13.426;2023-07-20T05:20:46;100709.44;;;17.52;100.00
56928;BME280;60850;52.502;13.426;2023-07-20T05:23:13;100710.69;;;17.63;100.00
56928;BME280;60850;52.502;13.426;2023-07-20T05:25:40;100707.16;;;17.78;100.00
56928;BME280;60850;52.502;13.426;2023-07-20T05:28:07;100699.81;;;17.96;100.00
56928;BME280;60850;52.502;13.426;2023-07-20T05:30:34;100706.84;;;18.14;100.00
56928;BME280;60850;52.502;13.426;2023-07-20T05:33:02;100707.94;;;18.42;100.00
56928;BME280;60850;52.502;13.426;2023-07-20T05:35:29;100706.97;;;18.73;100.00
56928;BME280;60850;52.502;13.426;2023-07-20T05:37:56;100707.31;;;18.97;100.00
56928;BME280;60850;52.502;13.426;2023-07-20T05:40:22;100705.13;;;18.73;100.00
56928;BME280;60850;52.502;13.426;2023-07-20T05:42:49;100709.50;;;18.76;100.00
56928;BME280;60850;52.502;13.426;2023-07-20T05:45:18;100706.44;;;19.67;100.00
56928;BME280;60850;52.502;13.426;2023-07-20T05:47:46;100710.84;;;21.27;100.00
56928;BME280;60850;52.502;13.426;2023-07-20T05:50:14;100706.00;;;22.18;100.00
56928;BME280;60850;52.502;13.426;2023-07-20T05:52:41;100709.47;;;22.80;100.00
56928;BME280;60850;52.502;13.426;2023-07-20T05:55:08;100705.06;;;24.02;100.00
56928;BME280;60850;52.502;13.426;2023-07-20T05:57:35;100713.13;;;23.02;100.00
56928;BME280;60850;52.502;13.426;2023-07-20T06:00:06;100718.22;;;22.83;100.00
56928;BME280;60850;52.502;13.426;2023-07-20T06:02:33;100708.41;;;21.86;100.00
56928;BME280;60850;52.502;13.426;2023-07-20T06:05:00;100713.47;;;21.16;100.00
56928;BME280;60850;52.502;13.426;2023-07-20T06:07:28;100716.25;;;20.51;100.00
56928;BME280;60850;52.502;13.426;2023-07-20T06:09:56;100722.16;;;19.89;100.00
56928;BME280;60850;52.502;13.426;2023-07-20T06:12:23;100721.50;;;19.43;100.00
56928;BME280;60850;52.502;13.426;2023-07-20T06:14:50;100733.25;;;18.99;100.00
56928;BME280;60850;52.502;13.426;2023-07-20T06:17:17;100734.09;;;18.85;100.00
56928;BME280;60850;52.502;13.426;2023-07-20T06:19:44;100726.41;;;18.63;100.00
56928;BME280;60850;52.502;13.426;2023-07-20T06:22:11;100739.50;;;18.55;100.00
56928;BME280;60850;52.502;13.426;2023-07-20T06:24:39;100738.94;;;18.64;100.00
56928;BME280;60850;52.502;13.426;2023-07-20T06:27:06;100740.78;;;18.94;100.00
56928;BME280;60850;52.502;13.426;2023-07-20T06:29:33;100739.63;;;18.98;100.00
56928;BME280;60850;52.502;13.426;2023-07-20T06:31:59;100741.75;;;18.93;100.00
56928;BME280;60850;52.502;13.426;2023-07-20T06:34:26;100739.25;;;18.90;100.00
56928;BME280;60850;52.502;13.426;2023-07-20T06:36:54;100743.81;;;19.46;100.00
56928;BME280;60850;52.502;13.426;2023-07-20T06:39:21;100736.78;;;19.99;100.00
56928;BME280;60850;52.502;13.426;2023-07-20T06:41:49;100735.16;;;20.91;100.00
56928;BME280;60850;52.502;13.426;2023-07-20T06:44:16;100738.09;;;20.88;100.00
56928;BME280;60850;52.502;13.426;2023-07-20T06:46:43;100743.97;;;20.27;100.00
56928;BME280;60850;52.502;13.426;2023-07-20T06:49:23;100735.28;;;19.95;100.00
56928;BME280;60850;52.502;13.426;2023-07-20T06:51:50;100741.19;;;20.69;100.00
56928;BME280;60850;52.502;13.426;2023-07-20T06:54:17;100733.78;;;20.45;100.00
56928;BME280;60850;52.502;13.426;2023-07-20T06:56:44;100744.41;;;20.07;100.00
56928;BME280;60850;52.502;13.426;2023-07-20T06:59:12;100743.34;;;20.10;100.00
56928;BME280;60850;52.502;13.426;2023-07-20T07:01:39;100750.28;;;19.72;100.00
56928;BME280;60850;52.502;13.426;2023-07-20T07:04:06;100752.47;;;19.52;100.00
56928;BME280;60850;52.502;13.426;2023-07-20T07:06:33;100742.13;;;20.28;100.00
56928;BME280;60850;52.502;13.426;2023-07-20T07:09:01;100740.44;;;22.18;100.00
56928;BME280;60850;52.502;13.426;2023-07-20T07:11:29;100740.97;;;23.96;94.43
56928;BME280;60850;52.502;13.426;2023-07-20T07:13:56;100736.41;;;25.34;78.02
56928;BME280;60850;52.502;13.426;2023-07-20T07:16:24;100742.84;;;23.73;82.90
56928;BME280;60850;52.502;13.426;2023-07-20T07:18:51;100745.78;;;23.58;87.07
56928;BME280;60850;52.502;13.426;2023-07-20T07:21:18;100739.00;;;25.66;69.95
56928;BME280;60850;52.502;13.426;2023-07-20T07:23:45;100745.94;;;27.36;58.54
56928;BME280;60850;52.502;13.426;2023-07-20T07:26:12;100760.34;;;27.76;55.00
56928;BME280;60850;52.502;13.426;2023-07-20T07:28:39;100748.28;;;27.59;51.60
56928;BME280;60850;52.502;13.426;2023-07-20T07:31:07;100745.84;;;26.90;53.72
56928;BME280;60850;52.502;13.426;2023-07-20T07:33:35;100760.25;;;25.32;60.51
56928;BME280;60850;52.502;13.426;2023-07-20T07:36:02;100756.56;;;23.94;68.31
56928;BME280;60850;52.502;13.426;2023-07-20T07:38:29;100752.06;;;23.25;74.30
56928;BME280;60850;52.502;13.426;2023-07-20T07:40:56;100749.84;;;22.73;80.24
56928;BME280;60850;52.502;13.426;2023-07-20T07:43:23;100753.44;;;23.31;75.66
56928;BME280;60850;52.502;13.426;2023-07-20T07:45:50;100751.38;;;24.45;70.35
56928;BME280;60850;52.502;13.426;2023-07-20T07:48:17;100744.41;;;24.52;70.30
56928;BME280;60850;52.502;13.426;2023-07-20T07:50:47;100740.97;;;26.45;58.13
56928;BME280;60850;52.502;13.426;2023-07-20T07:53:14;100750.06;;;28.15;50.33
56928;BME280;60850;52.502;13.426;2023-07-20T07:55:41;100750.63;;;27.07;51.96
56928;BME280;60850;52.502;13.426;2023-07-20T07:58:08;100753.34;;;25.89;55.47
56928;BME280;60850;52.502;13.426;2023-07-20T08:00:35;100754.66;;;25.34;60.24
56928;BME280;60850;52.502;13.426;2023-07-20T08:03:02;100750.44;;;24.67;63.79
56928;BME280;60850;52.502;13.426;2023-07-20T08:05:29;100752.63;;;23.98;68.77
56928;BME280;60850;52.502;13.426;2023-07-20T08:07:57;100760.13;;;23.16;74.87
56928;BME280;60850;52.502;13.426;2023-07-20T08:10:24;100753.22;;;23.34;75.55
56928;BME280;60850;52.502;13.426;2023-07-20T08:12:51;100760.03;;;24.50;67.44
56928;BME280;60850;52.502;13.426;2023-07-20T08:15:18;100755.38;;;24.94;62.55
56928;BME280;60850;52.502;13.426;2023-07-20T08:17:45;100752.53;;;24.75;60.04
56928;BME280;60850;52.502;13.426;2023-07-20T08:20:14;100763.25;;;24.55;62.89
56928;BME280;60850;52.502;13.426;2023-07-20T08:22:43;100762.91;;;23.83;63.86
56928;BME280;60850;52.502;13.426;2023-07-20T08:25:11;100770.25;;;23.14;68.79
56928;BME280;60850;52.502;13.426;2023-07-20T08:27:38;100774.03;;;22.76;72.01
56928;BME280;60850;52.502;13.426;2023-07-20T08:30:07;100778.34;;;22.91;73.92
56928;BME280;60850;52.502;13.426;2023-07-20T08:32:35;100782.44;;;23.66;67.76
56928;BME280;60850;52.502;13.426;2023-07-20T08:35:01;100766.41;;;24.40;64.51
56928;BME280;60850;52.502;13.426;2023-07-20T08:37:29;100774.22;;;24.65;62.75
56928;BME280;60850;52.502;13.426;2023-07-20T08:39:56;100774.44;;;24.30;67.52
56928;BME280;60850;52.502;13.426;2023-07-20T08:42:24;100775.22;;;23.53;65.82
56928;BME280;60850;52.502;13.426;2023-07-20T08:44:53;100773.94;;;23.01;68.14
56928;BME280;60850;52.502;13.426;2023-07-20T08:47:22;100773.72;;;23.05;69.77
56928;BME280;60850;52.502;13.426;2023-07-20T08:49:50;100769.38;;;22.78;74.91
56928;BME280;60850;52.502;13.426;2023-07-20T08:52:17;100769.81;;;22.37;78.48
56928;BME280;60850;52.502;13.426;2023-07-20T08:54:44;100774.78;;;22.06;80.63
56928;BME280;60850;52.502;13.426;2023-07-20T08:57:13;100773.66;;;21.85;84.79
56928;BME280;60850;52.502;13.426;2023-07-20T08:59:43;100770.41;;;24.13;67.81
56928;BME280;60850;52.502;13.426;2023-07-20T09:02:14;100782.22;;;25.82;57.01
56928;BME280;60850;52.502;13.426;2023-07-20T09:04:44;100780.66;;;27.26;50.54
56928;BME280;60850;52.502;13.426;2023-07-20T09:07:12;100774.63;;;28.07;45.31
56928;BME280;60850;52.502;13.426;2023-07-20T09:09:40;100770.19;;;28.33;44.13
56928;BME280;60850;52.502;13.426;2023-07-20T09:12:13;100775.13;;;28.65;42.15
56928;BME280;60850;52.502;13.426;2023-07-20T09:14:43;100780.56;;;27.75;44.50
56928;BME280;60850;52.502;13.426;2023-07-20T09:17:13;100775.19;;;28.73;41.87
56928;BME280;60850;52.502;13.426;2023-07-20T09:19:45;100774.28;;;29.00;41.57
56928;BME280;60850;52.502;13.426;2023-07-20T09:22:13;100764.25;;;28.56;42.29
56928;BME280;60850;52.502;13.426;2023-07-20T09:24:40;100765.31;;;28.45;42.26
56928;BME280;60850;52.502;13.426;2023-07-20T09:27:08;100766.72;;;27.29;43.55
56928;BME280;60850;52.502;13.426;2023-07-20T09:29:47;100766.38;;;27.42;43.91
56928;BME280;60850;52.502;13.426;2023-07-20T09:32:18;100770.66;;;26.09;46.29
56928;BME280;60850;52.502;13.426;2023-07-20T09:34:46;100762.84;;;26.45;46.51
56928;BME280;60850;52.502;13.426;2023-07-20T09:37:14;100771.47;;;25.60;49.16
56928;BME280;60850;52.502;13.426;2023-07-20T09:39:43;100767.91;;;24.64;51.83
56928;BME280;60850;52.502;13.426;2023-07-20T09:42:11;100765.81;;;24.25;54.68
56928;BME280;60850;52.502;13.426;2023-07-20T09:44:38;100769.09;;;23.74;58.67
56928;BME280;60850;52.502;13.426;2023-07-20T09:47:08;100770.78;;;23.52;61.63
56928;BME280;60850;52.502;13.426;2023-07-20T09:49:39;100775.53;;;23.04;63.91
56928;BME280;60850;52.502;13.426;2023-07-20T09:52:07;100770.44;;;22.40;65.73
56928;BME280;60850;52.502;13.426;2023-07-20T09:54:35;100772.31;;;21.90;72.20
56928;BME280;60850;52.502;13.426;2023-07-20T09:57:07;100786.91;;;21.77;74.70
56928;BME280;60850;52.502;13.426;2023-07-20T09:59:34;100782.88;;;21.19;80.79
56928;BME280;60850;52.502;13.426;2023-07-20T10:02:11;100792.81;;;20.93;88.99
56928;BME280;60850;52.502;13.426;2023-07-20T10:04:43;100788.22;;;20.68;96.00
56928;BME280;60850;52.502;13.426;2023-07-20T10:07:10;100804.09;;;20.33;100.00
56928;BME280;60850;52.502;13.426;2023-07-20T10:09:39;100800.69;;;20.02;100.00
56928;BME280;60850;52.502;13.426;2023-07-20T10:12:08;100798.16;;;19.99;100.00
56928;BME280;60850;52.502;13.426;2023-07-20T10:14:40;100798.25;;;20.12;100.00
56928;BME280;60850;52.502;13.426;2023-07-20T10:17:13;100798.06;;;20.42;100.00
56928;BME280;60850;52.502;13.426;2023-07-20T10:19:43;100796.66;;;20.63;100.00
56928;BME280;60850;52.502;13.426;2023-07-20T10:22:14;100785.66;;;20.92;100.00
56928;BME280;60850;52.502;13.426;2023-07-20T10:24:46;100785.38;;;21.09;100.00
56928;BME280;60850;52.502;13.426;2023-07-20T10:27:13;100792.13;;;21.16;100.00
56928;BME280;60850;52.502;13.426;2023-07-20T10:29:41;100788.38;;;20.92;100.00
56928;BME280;60850;52.502;13.426;2023-07-20T10:32:09;100790.44;;;20.88;100.00
56928;BME280;60850;52.502;13.426;2023-07-20T10:34:38;100789.78;;;20.84;100.00
56928;BME280;60850;52.502;13.426;2023-07-20T10:37:05;100788.94;;;20.57;100.00
56928;BME280;60850;52.502;13.426;2023-07-20T10:39:33;100798.84;;;20.44;100.00
56928;BME280;60850;52.502;13.426;2023-07-20T10:42:01;100795.94;;;20.47;100.00
56928;BME280;60850;52.502;13.426;2023-07-20T10:44:30;100802.06;;;20.63;100.00
56928;BME280;60850;52.502;13.426;2023-07-20T10:47:00;100789.31;;;20.78;100.00
56928;BME280;60850;52.502;13.426;2023-07-20T10:49:28;100790.28;;;20.77;97.09
56928;BME280;60850;52.502;13.426;2023-07-20T10:51:58;100800.75;;;20.56;99.39
56928;BME280;60850;52.502;13.426;2023-07-20T10:54:47;100799.97;;;20.54;100.00
56928;BME280;60850;52.502;13.426;2023-07-20T10:57:22;100799.00;;;20.55;100.00
56928;BME280;60850;52.502;13.426;2023-07-20T10:59:50;100792.97;;;20.64;100.00
56928;BME280;60850;52.502;13.426;2023-07-20T11:02:19;100788.34;;;20.66;100.00
56928;BME280;60850;52.502;13.426;2023-07-20T11:04:47;100793.69;;;20.80;100.00
56928;BME280;60850;52.502;13.426;2023-07-20T11:07:36;100798.75;;;20.72;100.00
56928;BME280;60850;52.502;13.426;2023-07-20T11:10:13;100796.91;;;20.73;100.00
56928;BME280;60850;52.502;13.426;2023-07-20T11:12:41;100797.81;;;20.86;100.00
56928;BME280;60850;52.502;13.426;2023-07-20T11:15:08;100801.84;;;20.93;98.99
56928;BME280;60850;52.502;13.426;2023-07-20T11:17:35;100796.75;;;21.01;96.34
56928;BME280;60850;52.502;13.426;2023-07-20T11:20:04;100806.19;;;20.96;96.00
56928;BME280;60850;52.502;13.426;2023-07-20T11:22:34;100798.38;;;21.04;96.93
56928;BME280;60850;52.502;13.426;2023-07-20T11:25:03;100799.72;;;21.24;94.95
56928;BME280;60850;52.502;13.426;2023-07-20T11:27:30;100799.84;;;21.35;94.66
56928;BME280;60850;52.502;13.426;2023-07-20T11:29:57;100799.41;;;21.28;94.43
56928;BME280;60850;52.502;13.426;2023-07-20T11:32:24;100807.19;;;21.07;96.66
56928;BME280;60850;52.502;13.426;2023-07-20T11:34:51;100810.25;;;21.41;95.10
56928;BME280;60850;52.502;13.426;2023-07-20T11:37:18;100805.69;;;21.42;93.48
56928;BME280;60850;52.502;13.426;2023-07-20T11:39:47;100807.53;;;21.79;91.37
56928;BME280;60850;52.502;13.426;2023-07-20T11:42:13;100800.94;;;21.58;92.11
56928;BME280;60850;52.502;13.426;2023-07-20T11:44:41;100803.41;;;21.86;91.13
56928;BME280;60850;52.502;13.426;2023-07-20T11:47:09;100790.88;;;21.97;89.71
56928;BME280;60850;52.502;13.426;2023-07-20T11:49:40;100800.25;;;21.92;88.24
56928;BME280;60850;52.502;13.426;2023-07-20T11:52:09;100786.81;;;21.65;90.80
56928;BME280;60850;52.502;13.426;2023-07-20T11:54:38;100787.41;;;21.94;87.71
56928;BME280;60850;52.502;13.426;2023-07-20T11:57:07;100788.66;;;22.27;84.88
56928;BME280;60850;52.502;13.426;2023-07-20T11:59:34;100786.91;;;22.26;82.87
56928;BME280;60850;52.502;13.426;2023-07-20T12:02:01;100784.75;;;22.06;83.00
56928;BME280;60850;52.502;13.426;2023-07-20T12:04:29;100781.97;;;21.94;81.80
56928;BME280;60850;52.502;13.426;2023-07-20T12:06:56;100792.47;;;21.37;83.22
56928;BME280;60850;52.502;13.426;2023-07-20T12:09:23;100783.13;;;21.28;84.38
56928;BME280;60850;52.502;13.426;2023-07-20T12:11:50;100795.09;;;20.99;87.56
56928;BME280;60850;52.502;13.426;2023-07-20T12:14:19;100793.41;;;20.71;90.61
56928;BME280;60850;52.502;13.426;2023-07-20T12:16:52;100796.88;;;20.60;94.43
56928;BME280;60850;52.502;13.426;2023-07-20T12:19:19;100783.53;;;20.43;99.27
56928;BME280;60850;52.502;13.426;2023-07-20T12:21:46;100799.03;;;20.41;96.21
56928;BME280;60850;52.502;13.426;2023-07-20T12:24:13;100796.31;;;20.41;95.15
56928;BME280;60850;52.502;13.426;2023-07-20T12:26:40;100801.16;;;20.50;92.65
56928;BME280;60850;52.502;13.426;2023-07-20T12:29:07;100798.25;;;20.93;90.54
56928;BME280;60850;52.502;13.426;2023-07-20T12:31:36;100798.50;;;21.15;88.70
56928;BME280;60850;52.502;13.426;2023-07-20T12:34:03;100803.94;;;21.28;86.36
56928;BME280;60850;52.502;13.426;2023-07-20T12:36:30;100793.66;;;21.46;84.23
56928;BME280;60850;52.502;13.426;2023-07-20T12:38:57;100786.50;;;21.45;83.47